Mount Olive, Arkansas
Current Conditions -  °F | °C
As of 12:53 AM on Thursday 27 Nov 2014 (Local Time) from KLLQ Reporting Station
Clear Clear  
Wind Chill: 41°   Ceiling: Unl
Heat Index: 44°   Visibility: 10mi
Dew Point: 29°   Wind: 6mph
Humidity: 55%   Direction: 310°NW
Pressure: 30.29"   Gusts: NA
Location:  33.37°N, 92.1129°W
Report Text: KLLQ 270653Z AUTO 31005KT 10SM CLR 07/M02 A3029 RMK AO2 SLP257 T00671017
Loading
Personal Weather Stations






























Interactive Weather Map New forecast layout! Learn more

10-Day Weather Forecast

Advertisements
Track Severe Weather on mobile